Impacts METAR Board
IDs:

KCVG - Cincinnati Intl, KY, US

Updated at: 0700 UTC 20 Oct 2018
Potential Impact None Slight Moderate High
Time 19/19Z 19/20Z 19/21Z 19/22Z 19/23Z 20/00Z 20/01Z 20/02Z 20/03Z 20/04Z 20/05Z 20/06Z 20/07Z
Temp58 57 56 56 57 57 54 49 49 49 49 49 50
Dewpt38 40 44 43 43 40 40 47 47 48 48 48 49
Altim30.09 30.05 30.02 30.01 30.00 30.00 30.00 30.01 29.99 29.97 29.97 29.95 29.95
VIS10 10 10 10 10 10 10 4 10 10 9 9 8
CIG110 110 75 100 47 45 42 33 16 8 6 6 5
CoverOVCOVCOVCOVCOVCOVCOVCOVCOVCOVCOVCOVCOVC
FltCatVFRVFRVFRVFRVFRVFRVFRMVFRMVFRIFRIFRIFRIFR
WX-------RA-RA-----RA BR----------
WDir220200190220230230250260250230250240250
WSpd5 7 6 5 7 9 6 9 9 9 9 8 8
WGst-- -- -- -- -- 18 -- -- -- -- -- -- --
Raw hourly METARs
KCVG 191852Z 22005KT 10SM OVC110 14/03 A3009 RMK AO2 PRESFR SLP188 T01440033
KCVG 191952Z 20007KT 10SM OVC110 14/04 A3005 RMK AO2 SLP174 T01390044
KCVG 192052Z 19006KT 10SM BKN075 OVC110 13/07 A3002 RMK AO2 SLP167 T01330067 56040
KCVG 192152Z 22005KT 10SM -RA FEW070 BKN100 OVC150 13/06 A3001 RMK AO2 RAB52 SLP162 P0000 T01330061
KCVG 192252Z 23007KT 10SM -RA OVC047 14/06 A3000 RMK AO2 RAE10B49 SLP159 P0000 T01390061
KCVG 192352Z 23009G18KT 10SM OVC045 14/04 A3000 RMK AO2 RAE2259 SLP159 P0000 60000 T01390044 10150 20133 56007
KCVG 200052Z 25006KT 10SM OVC042 12/04 A3000 RMK AO2 RAB24E35 SLP158 P0000 T01220044
KCVG 200152Z 26009KT 4SM -RA BR OVC033 09/08 A3001 RMK AO2 RAB06 SLP162 P0005 T00940083
KCVG 200252Z 25009KT 10SM FEW010 BKN016 OVC036 09/08 A2999 RMK AO2 RAE38 SLP154 P0004 60009 T00940083 58003
KCVG 200352Z 23009KT 10SM OVC008 09/09 A2997 RMK AO2 SLP147 T00940089
KCVG 200452Z 25009KT 9SM OVC006 09/09 A2997 RMK AO2 SLP145 T00940089 401500006
KCVG 200552Z 24008KT 9SM OVC006 09/09 A2995 RMK AO2 SLP139 60009 T00940089 10139 20094 58014
KCVG 200652Z 25008KT 8SM OVC005 10/09 A2995 RMK AO2 SLP138 T01000094



Page loaded:  07:18 UTC  |   12:18 AM Pacific  |   01:18 AM Mountain  |   02:18 AM Central  |   03:18 AM Eastern

 

ADVISORIES

FORECASTS

FORECASTS

OBSERVATIONS

USER TOOLS

ABOUT US